createdAt,value
2023-01-29T00:00:42.057Z,11.95
2023-01-29T00:03:12.829Z,11.99
2023-01-29T00:05:50.720Z,11.99
2023-01-29T00:08:21.168Z,12.03
2023-01-29T00:10:49.361Z,12.00
2023-01-29T00:13:19.843Z,11.93
2023-01-29T00:16:00.533Z,11.87
2023-01-29T00:18:29.811Z,12.00
2023-01-29T00:20:57.638Z,11.97
2023-01-29T00:23:27.690Z,11.88
2023-01-29T00:26:03.543Z,11.78
2023-01-29T00:28:34.230Z,11.83
2023-01-29T00:31:19.982Z,11.85
2023-01-29T00:33:52.182Z,11.70
2023-01-29T00:36:23.393Z,11.78
2023-01-29T00:39:07.462Z,11.87
2023-01-29T00:42:01.510Z,12.01
2023-01-29T00:44:55.225Z,11.99
2023-01-29T00:47:38.938Z,11.94
2023-01-29T00:50:19.839Z,12.02
2023-01-29T00:52:56.468Z,12.03
2023-01-29T00:55:27.548Z,12.08
2023-01-29T00:58:04.141Z,12.04
2023-01-29T01:00:40.134Z,12.16
2023-01-29T01:03:13.997Z,12.11
2023-01-29T01:05:49.727Z,12.02
2023-01-29T01:08:46.361Z,12.18
2023-01-29T01:11:21.436Z,12.21
2023-01-29T01:13:49.031Z,12.17
2023-01-29T01:16:27.572Z,12.05
2023-01-29T01:19:06.816Z,12.04
2023-01-29T01:21:50.022Z,12.17
2023-01-29T01:24:25.548Z,12.16
2023-01-29T01:26:59.158Z,12.17
2023-01-29T01:29:36.216Z,12.11
2023-01-29T01:32:26.935Z,12.12
2023-01-29T01:35:05.897Z,12.10
2023-01-29T01:37:43.996Z,12.08
2023-01-29T01:40:24.809Z,12.12
2023-01-29T01:43:05.007Z,12.06
2023-01-29T01:45:40.386Z,12.09
2023-01-29T01:48:19.960Z,12.13
2023-01-29T01:50:57.193Z,12.03
2023-01-29T01:54:06.274Z,12.05
2023-01-29T01:56:55.739Z,11.86
2023-01-29T02:02:50.840Z,11.88
2023-01-29T02:05:37.352Z,11.76
2023-01-29T02:08:26.353Z,11.78
2023-01-29T02:10:59.049Z,11.75
2023-01-29T02:13:53.848Z,11.82
2023-01-29T02:16:40.539Z,11.90
2023-01-29T02:19:25.450Z,11.79
2023-01-29T02:22:35.296Z,11.90
2023-01-29T02:25:22.152Z,11.82
2023-01-29T02:27:50.520Z,11.80
2023-01-29T02:30:43.393Z,11.91
2023-01-29T02:36:33.146Z,11.87
2023-01-29T02:39:37.953Z,11.87
2023-01-29T02:42:23.363Z,11.90
2023-01-29T02:45:17.253Z,11.88
2023-01-29T02:48:11.726Z,11.88
2023-01-29T02:51:02.511Z,11.81
2023-01-29T02:53:46.204Z,11.87
2023-01-29T02:56:41.400Z,11.74
2023-01-29T02:59:55.301Z,11.69
2023-01-29T03:02:47.117Z,11.81
2023-01-29T03:06:04.392Z,11.80
2023-01-29T03:08:50.359Z,11.72
2023-01-29T03:11:32.862Z,11.69
2023-01-29T03:14:07.908Z,11.70
2023-01-29T03:16:49.470Z,11.57
2023-01-29T03:19:36.874Z,11.61
2023-01-29T03:22:25.638Z,11.57
2023-01-29T03:25:41.861Z,11.43
2023-01-29T03:28:41.139Z,11.22
2023-01-29T03:31:36.243Z,11.27
2023-01-29T03:34:30.598Z,11.25
2023-01-29T03:37:14.246Z,11.12
2023-01-29T03:39:45.140Z,11.18
2023-01-29T03:42:38.857Z,11.25
2023-01-29T03:45:20.938Z,11.32
2023-01-29T03:48:33.355Z,11.26
2023-01-29T03:51:21.617Z,11.24
2023-01-29T03:54:09.972Z,11.28
2023-01-29T03:57:19.185Z,11.33
2023-01-29T04:00:03.345Z,11.21
2023-01-29T04:03:10.441Z,11.21
2023-01-29T04:06:01.755Z,11.07
2023-01-29T04:08:42.506Z,11.16
2023-01-29T04:11:18.073Z,11.20
2023-01-29T04:13:53.856Z,11.19
2023-01-29T04:16:37.988Z,11.26
2023-01-29T04:19:29.113Z,11.24
2023-01-29T04:22:14.559Z,11.19
2023-01-29T04:24:52.596Z,11.24
2023-01-29T04:27:36.931Z,11.18
2023-01-29T04:30:34.082Z,11.19
2023-01-29T04:33:38.476Z,11.20
2023-01-29T04:36:28.773Z,11.06
2023-01-29T04:39:28.692Z,11.13
2023-01-29T04:42:11.170Z,10.92
2023-01-29T04:48:43.635Z,11.14
2023-01-29T04:51:19.760Z,10.98
2023-01-29T04:54:18.775Z,10.99
2023-01-29T04:57:36.660Z,11.04
2023-01-29T05:00:19.615Z,10.93
2023-01-29T05:02:49.690Z,10.96
2023-01-29T05:05:26.019Z,10.97
2023-01-29T05:07:59.464Z,10.86
2023-01-29T05:10:39.205Z,10.90
2023-01-29T05:13:11.067Z,10.86
2023-01-29T05:16:00.224Z,10.89
2023-01-29T05:18:36.362Z,10.88
2023-01-29T05:21:12.159Z,10.82
2023-01-29T05:23:46.844Z,10.93
2023-01-29T05:26:45.432Z,10.90
2023-01-29T05:29:18.307Z,10.84
2023-01-29T05:31:46.281Z,10.79
2023-01-29T05:34:13.919Z,10.91
2023-01-29T05:36:45.458Z,10.82
2023-01-29T05:39:22.387Z,10.92
2023-01-29T05:41:57.014Z,10.95
2023-01-29T05:44:27.884Z,11.00
2023-01-29T05:47:24.857Z,10.96
2023-01-29T05:49:55.463Z,10.99
2023-01-29T05:52:22.780Z,11.01
2023-01-29T05:54:56.244Z,10.98
2023-01-29T05:57:29.035Z,10.89
2023-01-29T06:00:02.331Z,10.84
2023-01-29T06:02:53.067Z,10.68
2023-01-29T06:05:23.338Z,10.54
2023-01-29T06:07:52.331Z,10.67
2023-01-29T06:10:20.506Z,10.53
2023-01-29T06:12:48.491Z,10.66
2023-01-29T06:15:17.070Z,10.67
2023-01-29T06:17:44.247Z,10.67
2023-01-29T06:20:15.153Z,10.72
2023-01-29T06:22:55.623Z,10.69
2023-01-29T06:25:37.583Z,10.72
2023-01-29T06:28:05.186Z,10.60
2023-01-29T06:30:32.882Z,10.52
2023-01-29T06:33:09.311Z,10.34
2023-01-29T06:35:56.949Z,10.36
2023-01-29T06:38:27.844Z,10.33
2023-01-29T06:41:01.647Z,10.04
2023-01-29T06:43:28.900Z,10.01
2023-01-29T06:46:08.034Z,10.09
2023-01-29T06:48:41.270Z,10.09
2023-01-29T06:51:13.314Z,9.92
2023-01-29T06:54:13.634Z,10.06
2023-01-29T06:56:41.424Z,10.02
2023-01-29T06:59:32.609Z,10.02
2023-01-29T07:02:06.045Z,10.10
2023-01-29T07:04:35.845Z,10.17
2023-01-29T07:07:21.170Z,10.20
2023-01-29T07:09:55.402Z,9.95
2023-01-29T07:12:31.824Z,10.07
2023-01-29T07:15:05.970Z,10.06
2023-01-29T07:17:42.783Z,9.89
2023-01-29T07:20:19.760Z,9.97
2023-01-29T07:22:52.002Z,9.96
2023-01-29T07:25:37.335Z,9.74
2023-01-29T07:28:08.068Z,9.90
2023-01-29T07:30:38.292Z,9.99
2023-01-29T07:33:13.102Z,9.95
2023-01-29T07:35:50.234Z,9.97
2023-01-29T07:38:21.530Z,10.00
2023-01-29T07:40:58.882Z,10.06
2023-01-29T07:43:36.197Z,10.15
2023-01-29T07:46:09.657Z,10.15
2023-01-29T07:48:50.257Z,10.15
2023-01-29T07:51:24.813Z,10.21
2023-01-29T07:53:59.697Z,10.17
2023-01-29T07:56:32.312Z,10.17
2023-01-29T07:59:10.975Z,10.12
2023-01-29T08:01:38.296Z,10.05
2023-01-29T08:04:05.740Z,10.12
2023-01-29T08:06:38.711Z,9.98
2023-01-29T08:09:13.930Z,10.02
2023-01-29T08:11:41.249Z,10.01
2023-01-29T08:14:13.936Z,9.94
2023-01-29T08:16:46.168Z,9.98
2023-01-29T08:19:28.057Z,9.68
2023-01-29T08:22:08.742Z,9.86
2023-01-29T08:24:53.335Z,9.89
2023-01-29T08:27:32.549Z,9.96
2023-01-29T08:30:00.177Z,9.85
2023-01-29T08:32:32.771Z,10.02
2023-01-29T08:35:00.589Z,10.13
2023-01-29T08:37:30.573Z,10.18
2023-01-29T08:40:03.894Z,10.39
2023-01-29T08:42:44.968Z,10.56
2023-01-29T08:45:12.609Z,10.58
2023-01-29T08:47:52.459Z,10.71
2023-01-29T08:50:25.014Z,10.86
2023-01-29T08:52:59.896Z,11.03
2023-01-29T08:55:29.490Z,11.25
2023-01-29T08:58:05.868Z,11.39
2023-01-29T09:00:52.688Z,11.87
2023-01-29T09:06:04.616Z,12.42
2023-01-29T09:08:34.763Z,12.84
2023-01-29T09:11:11.420Z,13.08
2023-01-29T09:13:52.865Z,13.19
2023-01-29T09:16:39.957Z,13.16
2023-01-29T09:19:17.795Z,13.24
2023-01-29T09:21:45.003Z,13.22
2023-01-29T09:24:12.316Z,13.06
2023-01-29T09:26:46.920Z,13.11
2023-01-29T09:32:00.988Z,13.17
2023-01-29T09:34:35.764Z,12.91
2023-01-29T09:37:05.912Z,12.83
2023-01-29T09:39:40.411Z,12.79
2023-01-29T09:42:27.952Z,12.78
2023-01-29T09:48:19.327Z,12.73
2023-01-29T09:51:41.719Z,12.69
2023-01-29T09:54:36.493Z,12.68
2023-01-29T09:57:17.700Z,12.91
2023-01-29T09:59:45.191Z,13.19
2023-01-29T10:02:52.146Z,13.60
2023-01-29T10:06:03.895Z,13.60
2023-01-29T10:09:03.943Z,13.63
2023-01-29T10:11:58.201Z,13.93
2023-01-29T10:15:00.302Z,14.32
2023-01-29T10:18:14.648Z,14.27
2023-01-29T10:21:16.038Z,14.39
2023-01-29T10:24:02.029Z,14.45
2023-01-29T10:26:40.961Z,14.66
2023-01-29T10:29:18.408Z,15.07
2023-01-29T10:32:10.187Z,15.35
2023-01-29T10:35:04.237Z,16.03
2023-01-29T10:37:45.446Z,16.22
2023-01-29T10:40:42.040Z,16.60
2023-01-29T10:46:39.033Z,16.77
2023-01-29T10:49:25.021Z,17.24
2023-01-29T10:52:07.409Z,17.27
2023-01-29T10:54:51.592Z,17.71
2023-01-29T10:57:45.806Z,18.18
2023-01-29T11:00:26.961Z,18.32
2023-01-29T11:03:04.258Z,18.97
2023-01-29T11:05:47.647Z,19.37
2023-01-29T11:08:23.325Z,19.92
2023-01-29T11:12:00.422Z,20.19
2023-01-29T11:14:33.841Z,20.81
2023-01-29T11:17:01.297Z,20.83
2023-01-29T11:19:43.530Z,21.08
2023-01-29T11:22:16.825Z,21.36
2023-01-29T11:24:49.650Z,21.77
2023-01-29T11:27:32.162Z,22.05
2023-01-29T11:30:07.803Z,22.58
2023-01-29T11:32:51.273Z,23.03
2023-01-29T11:35:25.469Z,23.08
2023-01-29T11:38:08.194Z,23.19
2023-01-29T11:40:41.032Z,23.54
2023-01-29T11:43:29.253Z,23.59
2023-01-29T11:46:06.229Z,24.20
2023-01-29T11:48:59.222Z,23.63
2023-01-29T11:51:38.889Z,23.94
2023-01-29T11:54:20.322Z,24.32
2023-01-29T11:56:54.678Z,24.98
2023-01-29T11:59:26.874Z,25.48
2023-01-29T12:02:29.689Z,25.82
2023-01-29T12:05:14.596Z,26.14
2023-01-29T12:07:46.747Z,26.56
2023-01-29T12:10:40.630Z,27.00
2023-01-29T12:13:29.111Z,27.17
2023-01-29T12:16:33.398Z,27.30
2023-01-29T12:19:06.216Z,27.60
2023-01-29T12:22:04.020Z,27.49
2023-01-29T12:28:15.336Z,27.68
2023-01-29T12:31:36.526Z,28.01
2023-01-29T12:34:49.966Z,28.26
2023-01-29T12:37:38.315Z,28.63
2023-01-29T12:40:17.341Z,28.87
2023-01-29T12:43:05.516Z,29.04
2023-01-29T12:45:37.727Z,29.11
2023-01-29T12:48:33.346Z,29.03
2023-01-29T12:51:18.846Z,28.80
2023-01-29T12:53:59.638Z,28.92
2023-01-29T12:56:56.594Z,28.71
2023-01-29T13:03:29.835Z,26.87
2023-01-29T13:06:13.178Z,26.84
2023-01-29T13:11:52.639Z,26.53
2023-01-29T13:14:29.170Z,26.75
2023-01-29T13:17:26.051Z,26.37
2023-01-29T13:20:01.037Z,26.57
2023-01-29T13:22:36.403Z,25.38
2023-01-29T13:25:22.704Z,26.32
2023-01-29T13:27:56.748Z,25.77
2023-01-29T13:30:35.008Z,24.86
2023-01-29T13:33:15.761Z,25.48
2023-01-29T13:35:49.542Z,25.62
2023-01-29T13:38:47.970Z,26.21
2023-01-29T13:41:31.619Z,26.08
2023-01-29T13:44:16.051Z,26.22
2023-01-29T13:46:53.014Z,26.34
2023-01-29T13:50:05.790Z,25.25
2023-01-29T13:53:07.737Z,25.03
2023-01-29T13:55:42.659Z,25.66
2023-01-29T13:58:18.807Z,25.46
2023-01-29T14:01:00.392Z,25.56
2023-01-29T14:04:08.622Z,25.48
2023-01-29T14:06:43.371Z,25.72
2023-01-29T14:09:41.817Z,25.54
2023-01-29T14:15:26.329Z,25.47
2023-01-29T14:18:29.637Z,25.38
2023-01-29T14:21:34.173Z,25.01
2023-01-29T14:24:26.082Z,24.78
2023-01-29T14:27:10.966Z,24.42
2023-01-29T14:29:48.743Z,24.27
2023-01-29T14:32:25.369Z,24.04
2023-01-29T14:41:10.957Z,23.02
2023-01-29T14:43:38.250Z,22.65
2023-01-29T14:46:39.501Z,22.18
2023-01-29T14:49:12.487Z,22.50
2023-01-29T14:52:04.445Z,22.40
2023-01-29T14:54:42.429Z,22.08
2023-01-29T14:57:17.036Z,22.27
2023-01-29T14:59:59.660Z,22.06
2023-01-29T15:02:43.421Z,21.68
2023-01-29T15:05:36.334Z,21.29
2023-01-29T15:08:39.424Z,21.08
2023-01-29T15:11:53.779Z,20.98
2023-01-29T15:14:46.559Z,20.89
2023-01-29T15:17:34.027Z,20.81
2023-01-29T15:20:09.000Z,20.49
2023-01-29T15:22:43.223Z,19.31
2023-01-29T15:25:24.987Z,19.70
2023-01-29T15:27:58.874Z,18.79
2023-01-29T15:30:47.907Z,18.78
2023-01-29T15:33:25.777Z,19.15
2023-01-29T15:36:08.270Z,19.20
2023-01-29T15:38:36.861Z,18.38
2023-01-29T15:41:23.182Z,17.91
2023-01-29T15:44:23.673Z,17.38
2023-01-29T15:47:33.104Z,17.12
2023-01-29T15:50:00.890Z,17.00
2023-01-29T15:52:39.932Z,16.31
2023-01-29T15:55:31.791Z,16.25
2023-01-29T15:58:03.469Z,16.14
2023-01-29T16:00:38.834Z,16.06
2023-01-29T16:03:35.373Z,16.13
2023-01-29T16:06:05.417Z,16.44
2023-01-29T16:08:59.608Z,16.17
2023-01-29T16:11:29.109Z,16.16
2023-01-29T16:13:59.286Z,16.26
2023-01-29T16:16:28.291Z,16.19
2023-01-29T16:19:03.351Z,16.16
2023-01-29T16:21:36.969Z,16.17
2023-01-29T16:24:18.973Z,16.06
2023-01-29T16:27:17.719Z,15.84
2023-01-29T16:29:54.057Z,16.12
2023-01-29T16:32:26.092Z,15.89
2023-01-29T16:35:00.386Z,15.81
2023-01-29T16:37:36.619Z,15.67
2023-01-29T16:40:26.099Z,15.70
2023-01-29T16:43:20.655Z,15.53
2023-01-29T16:46:32.848Z,15.18
2023-01-29T16:49:30.388Z,15.08
2023-01-29T16:52:24.408Z,14.90
2023-01-29T16:54:55.751Z,15.04
2023-01-29T16:57:35.993Z,15.32
2023-01-29T17:00:18.718Z,15.22
2023-01-29T17:02:46.369Z,14.93
2023-01-29T17:05:53.677Z,15.09
2023-01-29T17:08:35.029Z,14.80
2023-01-29T17:11:07.412Z,14.66
2023-01-29T17:13:47.032Z,14.61
2023-01-29T17:16:29.574Z,14.50
2023-01-29T17:19:00.903Z,14.68
2023-01-29T17:21:38.920Z,13.91
2023-01-29T17:24:07.567Z,14.61
2023-01-29T17:27:13.550Z,14.16
2023-01-29T17:29:47.022Z,14.35
2023-01-29T17:34:59.644Z,14.19
2023-01-29T17:37:32.744Z,14.37
2023-01-29T17:40:39.069Z,13.72
2023-01-29T17:43:21.574Z,13.74
2023-01-29T17:45:48.971Z,14.12
2023-01-29T17:48:27.580Z,13.94
2023-01-29T17:51:07.667Z,14.15
2023-01-29T17:53:52.565Z,14.07
2023-01-29T17:56:30.849Z,14.20
2023-01-29T17:59:12.271Z,14.33
2023-01-29T18:01:56.502Z,14.18
2023-01-29T18:04:31.335Z,14.27
2023-01-29T18:06:59.558Z,13.81
2023-01-29T18:09:31.611Z,13.93
2023-01-29T18:12:01.955Z,14.20
2023-01-29T18:14:46.108Z,13.96
2023-01-29T18:20:33.589Z,14.17
2023-01-29T18:23:09.321Z,14.07
2023-01-29T18:25:39.895Z,14.00
2023-01-29T18:28:07.825Z,13.92
2023-01-29T18:30:47.441Z,14.08
2023-01-29T18:33:41.436Z,14.30
2023-01-29T18:38:53.352Z,14.31
2023-01-29T18:41:26.984Z,14.35
2023-01-29T18:43:54.522Z,13.99
2023-01-29T18:46:32.937Z,14.23
2023-01-29T18:49:14.605Z,13.97
2023-01-29T18:51:57.600Z,14.23
2023-01-29T18:54:29.787Z,14.21
2023-01-29T18:58:27.829Z,14.22
2023-01-29T19:00:27.732Z,14.17
2023-01-29T19:02:55.153Z,14.18
2023-01-29T19:05:24.051Z,14.01
2023-01-29T19:08:06.704Z,14.00
2023-01-29T19:10:40.940Z,14.03
2023-01-29T19:13:11.297Z,14.09
2023-01-29T19:15:43.660Z,14.11
2023-01-29T19:18:15.047Z,14.09
2023-01-29T19:20:42.906Z,14.18
2023-01-29T19:23:17.678Z,14.10
2023-01-29T19:25:49.583Z,14.23
2023-01-29T19:28:24.152Z,14.32
2023-01-29T19:31:02.242Z,14.31
2023-01-29T19:33:36.106Z,14.37
2023-01-29T19:36:13.907Z,14.43
2023-01-29T19:38:44.609Z,14.38
2023-01-29T19:41:12.020Z,14.40
2023-01-29T19:44:16.429Z,14.31
2023-01-29T19:47:14.123Z,14.25
2023-01-29T19:49:53.659Z,14.25
2023-01-29T19:52:50.124Z,14.16
2023-01-29T19:55:21.307Z,14.10
2023-01-29T19:57:58.971Z,14.07
2023-01-29T20:01:04.646Z,14.10
2023-01-29T20:03:35.171Z,14.13
2023-01-29T20:06:11.951Z,14.10
2023-01-29T20:08:58.821Z,14.08
2023-01-29T20:11:28.319Z,14.09
2023-01-29T20:13:59.156Z,14.10
2023-01-29T20:16:41.480Z,14.07
2023-01-29T20:19:14.474Z,14.05
2023-01-29T20:21:46.563Z,13.93
2023-01-29T20:24:24.277Z,13.92
2023-01-29T20:26:55.987Z,13.92
2023-01-29T20:29:29.266Z,13.87
2023-01-29T20:34:59.154Z,13.83
2023-01-29T20:37:27.672Z,13.83
2023-01-29T20:39:55.051Z,13.81
2023-01-29T20:42:34.880Z,13.77
2023-01-29T20:45:02.182Z,13.76
2023-01-29T20:47:54.500Z,13.69
2023-01-29T20:50:23.419Z,13.63
2023-01-29T20:52:53.549Z,13.56
2023-01-29T20:55:23.781Z,13.50
2023-01-29T20:58:05.761Z,13.53
2023-01-29T21:00:46.358Z,13.46
2023-01-29T21:03:22.072Z,13.39
2023-01-29T21:05:50.581Z,13.40
2023-01-29T21:08:26.180Z,13.35
2023-01-29T21:11:12.562Z,13.30
2023-01-29T21:13:49.432Z,13.31
2023-01-29T21:16:16.742Z,13.17
2023-01-29T21:18:53.735Z,13.18
2023-01-29T21:21:24.672Z,13.14
2023-01-29T21:26:58.860Z,13.08
2023-01-29T21:29:29.664Z,12.96
2023-01-29T21:32:07.479Z,12.90
2023-01-29T21:34:40.673Z,12.91
2023-01-29T21:37:14.263Z,12.82
2023-01-29T21:39:46.239Z,12.74
2023-01-29T21:42:34.904Z,12.73
2023-01-29T21:45:05.407Z,12.73
2023-01-29T21:47:32.568Z,12.67
2023-01-29T21:50:00.031Z,12.64
2023-01-29T21:52:27.212Z,12.65
2023-01-29T21:54:59.580Z,12.65
2023-01-29T21:57:29.332Z,12.52
2023-01-29T22:00:05.439Z,12.56
2023-01-29T22:02:56.650Z,12.25
2023-01-29T22:05:29.058Z,12.36
2023-01-29T22:07:56.883Z,12.36
2023-01-29T22:10:27.179Z,12.46
2023-01-29T22:12:57.325Z,12.46
2023-01-29T22:15:27.728Z,12.41
2023-01-29T22:17:55.386Z,12.38
2023-01-29T22:20:29.964Z,12.41
2023-01-29T22:23:03.174Z,12.36
2023-01-29T22:25:37.445Z,12.31
2023-01-29T22:28:06.178Z,12.31
2023-01-29T22:30:47.914Z,12.23
2023-01-29T22:33:44.052Z,12.32
2023-01-29T22:36:18.263Z,12.27
2023-01-29T22:38:47.394Z,12.31
2023-01-29T22:41:24.501Z,12.29
2023-01-29T22:46:46.494Z,12.16
2023-01-29T22:49:23.488Z,12.07
2023-01-29T22:55:01.502Z,12.10
2023-01-29T22:57:34.957Z,12.15
2023-01-29T23:00:10.344Z,12.11
2023-01-29T23:02:38.302Z,12.12
2023-01-29T23:05:10.146Z,12.08
2023-01-29T23:07:41.724Z,12.15
2023-01-29T23:13:31.799Z,12.07
2023-01-29T23:16:10.187Z,12.03
2023-01-29T23:18:42.326Z,12.07
2023-01-29T23:21:15.692Z,12.13
2023-01-29T23:23:50.317Z,12.10
2023-01-29T23:29:27.953Z,12.04
2023-01-29T23:31:55.388Z,12.05
2023-01-29T23:34:29.118Z,12.04
2023-01-29T23:36:56.598Z,12.03
2023-01-29T23:39:26.779Z,12.05
2023-01-29T23:41:54.153Z,12.11
2023-01-29T23:44:27.621Z,12.11
2023-01-29T23:49:36.791Z,12.10
2023-01-29T23:52:11.325Z,12.05
2023-01-29T23:54:38.993Z,12.00
2023-01-29T23:57:06.558Z,11.93
2023-01-29T23:59:57.340Z,11.89
